createdAt,value
2022-08-27T00:02:09.876Z,70.67
2022-08-27T00:04:38.726Z,70.95
2022-08-27T00:07:08.433Z,71.01
2022-08-27T00:09:37.454Z,71.27
2022-08-27T00:12:06.150Z,71.26
2022-08-27T00:14:35.411Z,71.42
2022-08-27T00:17:05.802Z,71.63
2022-08-27T00:19:36.184Z,71.71
2022-08-27T00:22:08.801Z,71.69
2022-08-27T00:24:38.527Z,72.11
2022-08-27T00:27:18.085Z,72.35
2022-08-27T00:29:48.108Z,72.51
2022-08-27T00:32:17.302Z,73.04
2022-08-27T00:34:45.662Z,72.85
2022-08-27T00:37:14.091Z,72.86
2022-08-27T00:39:42.164Z,73.04
2022-08-27T00:42:10.572Z,73.36
2022-08-27T00:44:39.086Z,73.31
2022-08-27T00:47:17.625Z,73.31
2022-08-27T00:49:53.333Z,73.49
2022-08-27T00:52:34.786Z,73.75
2022-08-27T00:55:20.863Z,74.01
2022-08-27T00:58:03.206Z,73.99
2022-08-27T01:00:34.196Z,74.18
2022-08-27T01:03:02.281Z,74.22
2022-08-27T01:05:30.673Z,74.46
2022-08-27T01:08:04.622Z,74.66
2022-08-27T01:10:32.793Z,74.70
2022-08-27T01:13:00.976Z,74.69
2022-08-27T01:15:30.709Z,74.79
2022-08-27T01:17:59.943Z,74.96
2022-08-27T01:20:35.242Z,75.15
2022-08-27T01:23:25.637Z,75.17
2022-08-27T01:25:53.665Z,75.25
2022-08-27T01:28:22.798Z,75.48
2022-08-27T01:30:52.012Z,75.74
2022-08-27T01:33:22.040Z,75.98
2022-08-27T01:35:52.669Z,76.29
2022-08-27T01:38:30.626Z,76.55
2022-08-27T01:41:01.245Z,76.86
2022-08-27T01:43:31.560Z,76.87
2022-08-27T01:45:59.670Z,77.13
2022-08-27T01:48:27.672Z,77.09
2022-08-27T01:50:56.697Z,77.42
2022-08-27T01:53:27.138Z,77.83
2022-08-27T01:55:56.394Z,77.80
2022-08-27T01:58:30.744Z,77.77
2022-08-27T02:01:03.461Z,77.88
2022-08-27T02:03:32.820Z,78.21
2022-08-27T02:06:06.307Z,78.39
2022-08-27T02:08:34.562Z,78.56
2022-08-27T02:11:03.001Z,78.64
2022-08-27T02:13:31.001Z,78.81
2022-08-27T02:15:58.968Z,79.06
2022-08-27T02:18:27.058Z,79.20
2022-08-27T02:20:55.037Z,79.22
2022-08-27T02:23:23.102Z,79.24
2022-08-27T02:25:51.352Z,79.44
2022-08-27T02:28:19.446Z,79.46
2022-08-27T02:30:47.392Z,79.57
2022-08-27T02:33:15.803Z,79.73
2022-08-27T02:35:44.530Z,79.88
2022-08-27T02:38:14.299Z,79.99
2022-08-27T02:40:42.964Z,80.16
2022-08-27T02:43:15.998Z,80.33
2022-08-27T02:45:52.145Z,80.36
2022-08-27T02:48:20.901Z,80.40
2022-08-27T02:50:48.932Z,80.47
2022-08-27T02:53:19.077Z,80.29
2022-08-27T02:55:47.941Z,80.49
2022-08-27T02:58:17.622Z,80.73
2022-08-27T03:00:45.891Z,80.94
2022-08-27T03:03:14.082Z,80.94
2022-08-27T03:05:42.417Z,80.96
2022-08-27T03:08:10.842Z,81.03
2022-08-27T03:10:39.005Z,81.22
2022-08-27T03:13:07.092Z,81.43
2022-08-27T03:15:35.073Z,81.43
2022-08-27T03:18:22.031Z,81.31
2022-08-27T03:20:55.050Z,81.53
2022-08-27T03:23:25.615Z,81.70
2022-08-27T03:26:03.022Z,81.73
2022-08-27T03:28:35.794Z,81.97
2022-08-27T03:31:07.868Z,82.10
2022-08-27T03:33:38.944Z,82.09
2022-08-27T03:36:09.185Z,82.12
2022-08-27T03:38:38.250Z,82.35
2022-08-27T03:41:07.525Z,82.46
2022-08-27T03:43:35.833Z,82.60
2022-08-27T03:46:03.939Z,82.59
2022-08-27T03:48:32.950Z,82.50
2022-08-27T03:51:06.852Z,82.55
2022-08-27T03:53:36.667Z,82.86
2022-08-27T03:56:06.510Z,82.68
2022-08-27T03:58:36.231Z,82.69
2022-08-27T04:01:06.358Z,82.62
2022-08-27T04:03:35.518Z,82.58
2022-08-27T04:06:04.200Z,82.48
2022-08-27T04:08:32.139Z,82.53
2022-08-27T04:11:00.330Z,82.53
2022-08-27T04:13:28.265Z,82.71
2022-08-27T04:15:57.187Z,82.83
2022-08-27T04:18:25.277Z,83.05
2022-08-27T04:20:53.262Z,82.80
2022-08-27T04:23:21.945Z,82.75
2022-08-27T04:25:50.757Z,82.78
2022-08-27T04:28:18.818Z,82.71
2022-08-27T04:30:47.491Z,82.74
2022-08-27T04:33:15.574Z,82.57
2022-08-27T04:35:43.799Z,82.37
2022-08-27T04:38:12.473Z,82.25
2022-08-27T04:40:59.104Z,82.12
2022-08-27T04:43:28.965Z,82.16
2022-08-27T04:45:57.397Z,82.03
2022-08-27T04:48:25.999Z,81.92
2022-08-27T04:50:54.101Z,81.71
2022-08-27T04:53:22.535Z,81.48
2022-08-27T04:55:53.625Z,81.28
2022-08-27T04:58:23.197Z,81.05
2022-08-27T05:00:54.426Z,80.86
2022-08-27T05:03:24.431Z,80.70
2022-08-27T05:05:54.492Z,80.67
2022-08-27T05:08:22.670Z,80.69
2022-08-27T05:10:51.602Z,80.49
2022-08-27T05:13:23.889Z,80.18
2022-08-27T05:16:00.379Z,80.06
2022-08-27T05:18:28.632Z,79.82
2022-08-27T05:20:57.572Z,79.10
2022-08-27T05:23:28.318Z,77.38
2022-08-27T05:25:57.752Z,75.23
2022-08-27T05:28:28.303Z,72.74
2022-08-27T05:31:05.395Z,70.00
2022-08-27T05:33:34.395Z,67.58
2022-08-27T05:36:02.570Z,65.16
2022-08-27T05:38:31.455Z,63.13
2022-08-27T05:41:21.140Z,61.45
2022-08-27T05:43:50.520Z,59.74
2022-08-27T05:46:22.557Z,58.21
2022-08-27T05:49:11.358Z,56.83
2022-08-27T05:51:39.312Z,55.43
2022-08-27T05:54:11.601Z,55.09
2022-08-27T05:56:42.089Z,54.31
2022-08-27T05:59:28.903Z,53.91
2022-08-27T06:01:58.912Z,53.14
2022-08-27T06:04:30.321Z,52.04
2022-08-27T06:06:58.299Z,50.93
2022-08-27T06:09:29.665Z,49.69
2022-08-27T06:12:00.527Z,48.72
2022-08-27T06:14:28.959Z,48.05
2022-08-27T06:16:57.266Z,47.62
2022-08-27T06:19:25.322Z,47.80
2022-08-27T06:22:01.280Z,47.55
2022-08-27T06:24:41.099Z,46.99
2022-08-27T06:27:16.441Z,47.04
2022-08-27T06:29:45.002Z,47.10
2022-08-27T06:32:15.080Z,47.22
2022-08-27T06:34:43.110Z,48.12
2022-08-27T06:37:11.241Z,48.47
2022-08-27T06:39:40.549Z,48.77
2022-08-27T06:42:12.148Z,49.93
2022-08-27T06:44:40.587Z,50.52
2022-08-27T06:47:08.515Z,50.93
2022-08-27T06:49:40.343Z,51.84
2022-08-27T06:52:08.435Z,51.92
2022-08-27T06:54:37.602Z,51.95
2022-08-27T06:57:05.737Z,51.77
2022-08-27T06:59:33.671Z,52.13
2022-08-27T07:02:01.751Z,52.79
2022-08-27T07:04:32.240Z,51.67
2022-08-27T07:07:02.708Z,51.34
2022-08-27T07:09:32.756Z,51.08
2022-08-27T07:12:01.786Z,51.67
2022-08-27T07:14:34.267Z,51.43
2022-08-27T07:17:08.194Z,50.27
2022-08-27T07:19:40.693Z,50.15
2022-08-27T07:22:09.863Z,49.68
2022-08-27T07:24:38.753Z,48.83
2022-08-27T07:27:10.452Z,48.81
2022-08-27T07:29:38.566Z,49.33
2022-08-27T07:32:06.941Z,49.33
2022-08-27T07:34:35.466Z,48.54
2022-08-27T07:37:03.582Z,48.51
2022-08-27T07:39:41.703Z,48.24
2022-08-27T07:42:48.740Z,46.99
2022-08-27T07:45:17.114Z,46.21
2022-08-27T07:47:45.315Z,45.13
2022-08-27T07:50:14.218Z,46.21
2022-08-27T07:52:44.422Z,45.86
2022-08-27T07:55:13.766Z,45.44
2022-08-27T07:57:42.342Z,45.21
2022-08-27T08:00:11.483Z,44.21
2022-08-27T08:02:42.361Z,43.63
2022-08-27T08:05:13.368Z,42.57
2022-08-27T08:07:41.826Z,41.89
2022-08-27T08:10:12.289Z,41.37
2022-08-27T08:12:41.242Z,40.45
2022-08-27T08:15:11.491Z,39.54
2022-08-27T08:17:39.912Z,39.36
2022-08-27T08:20:23.757Z,39.36
2022-08-27T08:22:55.852Z,38.11
2022-08-27T08:25:24.078Z,38.29
2022-08-27T08:27:52.530Z,37.66
2022-08-27T08:30:20.876Z,37.14
2022-08-27T08:32:49.068Z,36.75
2022-08-27T08:35:18.483Z,37.12
2022-08-27T08:37:47.356Z,36.58
2022-08-27T08:40:43.407Z,37.08
2022-08-27T08:43:25.845Z,37.21
2022-08-27T08:45:56.652Z,37.88
2022-08-27T08:48:30.000Z,36.46
2022-08-27T08:51:05.779Z,35.37
2022-08-27T08:53:38.841Z,36.23
2022-08-27T08:56:12.629Z,34.85
2022-08-27T08:58:59.054Z,34.21
2022-08-27T09:01:28.150Z,34.26
2022-08-27T09:04:03.735Z,34.97
2022-08-27T09:06:52.492Z,34.70
2022-08-27T09:09:27.820Z,32.78
2022-08-27T09:12:05.942Z,32.13
2022-08-27T09:14:41.714Z,31.68
2022-08-27T09:17:14.988Z,33.41
2022-08-27T09:19:43.663Z,32.94
2022-08-27T09:22:30.259Z,32.15
2022-08-27T09:25:22.813Z,30.93
2022-08-27T09:27:57.780Z,30.59
2022-08-27T09:30:31.748Z,30.54
2022-08-27T09:33:04.607Z,31.01
2022-08-27T09:35:45.161Z,30.39
2022-08-27T09:38:29.618Z,31.10
2022-08-27T09:41:02.062Z,30.84
2022-08-27T09:43:32.266Z,29.86
2022-08-27T09:46:05.677Z,29.01
2022-08-27T09:48:37.827Z,29.44
2022-08-27T09:51:15.127Z,29.59
2022-08-27T09:53:56.161Z,29.95
2022-08-27T09:56:53.933Z,29.94
2022-08-27T09:59:50.475Z,28.93
2022-08-27T10:02:22.551Z,27.30
2022-08-27T10:04:53.508Z,27.49
2022-08-27T10:07:54.286Z,28.40
2022-08-27T10:10:30.635Z,27.45
2022-08-27T10:13:13.432Z,27.10
2022-08-27T10:15:48.967Z,26.84
2022-08-27T10:18:48.140Z,25.24
2022-08-27T10:21:30.714Z,25.94
2022-08-27T10:24:20.252Z,24.44
2022-08-27T10:27:14.444Z,24.26
2022-08-27T10:30:01.294Z,23.44
2022-08-27T10:33:06.822Z,24.65
2022-08-27T10:36:04.637Z,25.26
2022-08-27T10:38:53.591Z,24.86
2022-08-27T10:42:14.261Z,23.60
2022-08-27T10:45:15.945Z,23.56
2022-08-27T10:48:30.942Z,23.34
2022-08-27T10:51:09.334Z,23.17
2022-08-27T10:53:48.342Z,22.16
2022-08-27T10:56:32.210Z,21.24
2022-08-27T10:59:18.006Z,21.65
2022-08-27T11:02:00.462Z,22.25
2022-08-27T11:04:35.708Z,21.91
2022-08-27T11:07:24.652Z,20.79
2022-08-27T11:10:13.765Z,20.68
2022-08-27T11:12:47.175Z,19.15
2022-08-27T11:15:23.542Z,19.78
2022-08-27T11:18:21.201Z,19.49
2022-08-27T11:21:03.443Z,19.86
2022-08-27T11:23:47.913Z,19.93
2022-08-27T11:26:16.235Z,19.88
2022-08-27T11:28:51.660Z,19.18
2022-08-27T11:31:34.209Z,18.89
2022-08-27T11:34:02.822Z,19.23
2022-08-27T11:36:53.252Z,19.57
2022-08-27T11:39:37.925Z,19.41
2022-08-27T11:42:17.864Z,19.61
2022-08-27T11:44:49.703Z,20.01
2022-08-27T11:47:24.804Z,19.56
2022-08-27T11:50:01.912Z,18.62
2022-08-27T11:52:40.216Z,18.20
2022-08-27T11:55:20.305Z,19.43
2022-08-27T11:58:02.622Z,19.55
2022-08-27T12:00:38.832Z,19.40
2022-08-27T12:03:19.109Z,18.65
2022-08-27T12:05:53.336Z,17.56
2022-08-27T12:08:24.329Z,16.76
2022-08-27T12:11:24.790Z,17.22
2022-08-27T12:14:14.812Z,18.56
2022-08-27T12:17:33.427Z,18.31
2022-08-27T12:20:26.241Z,18.60
2022-08-27T12:23:32.986Z,18.35
2022-08-27T12:26:32.936Z,19.34
2022-08-27T12:29:19.424Z,19.21
2022-08-27T12:32:00.524Z,18.78
2022-08-27T12:34:29.877Z,18.85
2022-08-27T12:36:57.921Z,19.55
2022-08-27T12:39:30.134Z,20.03
2022-08-27T12:41:58.237Z,19.21
2022-08-27T12:44:29.118Z,19.63
2022-08-27T12:47:05.527Z,19.68
2022-08-27T12:49:52.621Z,19.83
2022-08-27T12:52:56.925Z,20.35
2022-08-27T12:55:37.554Z,19.01
2022-08-27T12:58:16.031Z,18.20
2022-08-27T13:01:11.797Z,17.40
2022-08-27T13:03:44.605Z,17.80
2022-08-27T13:06:34.711Z,17.61
2022-08-27T13:09:07.520Z,16.71
2022-08-27T13:11:48.258Z,15.95
2022-08-27T13:14:20.372Z,17.23
2022-08-27T13:16:57.661Z,18.14
2022-08-27T13:19:30.819Z,18.66
2022-08-27T13:22:05.802Z,18.94
2022-08-27T13:24:35.739Z,19.71
2022-08-27T13:27:06.128Z,19.78
2022-08-27T13:29:34.851Z,20.09
2022-08-27T13:32:05.884Z,19.94
2022-08-27T13:34:38.925Z,20.92
2022-08-27T13:37:23.365Z,21.70
2022-08-27T13:39:57.159Z,22.19
2022-08-27T13:42:28.229Z,21.50
2022-08-27T13:45:06.337Z,21.50
2022-08-27T13:47:45.606Z,21.32
2022-08-27T13:50:20.840Z,21.42
2022-08-27T13:53:09.039Z,24.78
2022-08-27T13:55:47.995Z,26.52
2022-08-27T13:58:23.897Z,28.20
2022-08-27T14:00:52.420Z,28.74
2022-08-27T14:03:33.056Z,28.65
2022-08-27T14:06:02.644Z,27.55
2022-08-27T14:08:34.466Z,25.29
2022-08-27T14:11:07.232Z,23.66
2022-08-27T14:13:45.829Z,22.01
2022-08-27T14:16:24.392Z,20.74
2022-08-27T14:19:06.955Z,19.68
2022-08-27T14:21:57.173Z,21.50
2022-08-27T14:24:26.501Z,23.22
2022-08-27T14:27:04.177Z,23.84
2022-08-27T14:29:32.291Z,23.67
2022-08-27T14:32:00.292Z,24.94
2022-08-27T14:34:29.042Z,26.47
2022-08-27T14:36:57.357Z,26.47
2022-08-27T14:39:26.697Z,26.56
2022-08-27T14:41:56.455Z,26.69
2022-08-27T14:44:25.913Z,27.21
2022-08-27T14:46:55.023Z,27.26
2022-08-27T14:49:34.855Z,27.76
2022-08-27T14:52:05.564Z,28.26
2022-08-27T14:54:34.663Z,27.38
2022-08-27T14:57:03.953Z,27.95
2022-08-27T14:59:33.247Z,28.50
2022-08-27T15:02:04.918Z,28.00
2022-08-27T15:04:33.334Z,26.51
2022-08-27T15:07:01.785Z,25.97
2022-08-27T15:09:30.145Z,24.22
2022-08-27T15:11:58.545Z,22.65
2022-08-27T15:14:32.937Z,21.90
2022-08-27T15:17:01.426Z,20.96
2022-08-27T15:19:31.013Z,21.04
2022-08-27T15:22:23.526Z,20.28
2022-08-27T15:24:56.491Z,19.47
2022-08-27T15:27:30.119Z,19.93
2022-08-27T15:30:10.110Z,19.32
2022-08-27T15:32:42.107Z,19.58
2022-08-27T15:35:15.727Z,19.38
2022-08-27T15:37:45.456Z,19.58
2022-08-27T15:40:16.769Z,19.96
2022-08-27T15:42:45.375Z,20.15
2022-08-27T15:45:14.792Z,19.94
2022-08-27T15:47:43.225Z,19.53
2022-08-27T15:50:11.620Z,20.26
2022-08-27T15:52:41.862Z,20.63
2022-08-27T15:55:20.298Z,21.41
2022-08-27T15:57:48.734Z,21.44
2022-08-27T16:00:17.865Z,21.74
2022-08-27T16:02:46.963Z,21.86
2022-08-27T16:05:16.850Z,22.85
2022-08-27T16:07:45.255Z,23.80
2022-08-27T16:10:17.075Z,23.92
2022-08-27T16:12:45.843Z,24.15
2022-08-27T16:15:14.250Z,23.87
2022-08-27T16:17:42.625Z,24.24
2022-08-27T16:20:13.795Z,24.72
2022-08-27T16:22:42.315Z,25.06
2022-08-27T16:25:16.500Z,25.05
2022-08-27T16:27:47.800Z,25.44
2022-08-27T16:30:15.745Z,26.16
2022-08-27T16:32:49.038Z,27.05
2022-08-27T16:35:17.388Z,27.16
2022-08-27T16:37:45.809Z,27.84
2022-08-27T16:40:15.789Z,28.85
2022-08-27T16:42:47.895Z,29.74
2022-08-27T16:45:17.951Z,30.59
2022-08-27T16:48:04.258Z,32.23
2022-08-27T16:50:35.344Z,34.17
2022-08-27T16:53:09.168Z,35.49
2022-08-27T16:55:40.530Z,36.77
2022-08-27T16:58:16.065Z,37.43
2022-08-27T17:00:46.138Z,38.33
2022-08-27T17:03:14.305Z,39.08
2022-08-27T17:05:42.795Z,40.00
2022-08-27T17:08:11.910Z,40.43
2022-08-27T17:10:47.993Z,41.00
2022-08-27T17:13:22.446Z,41.03
2022-08-27T17:15:57.067Z,40.62
2022-08-27T17:18:27.846Z,41.27
2022-08-27T17:20:59.162Z,40.92
2022-08-27T17:23:39.895Z,40.91
2022-08-27T17:26:11.899Z,40.55
2022-08-27T17:28:41.732Z,41.63
2022-08-27T17:31:14.647Z,41.49
2022-08-27T17:33:48.430Z,41.39
2022-08-27T17:36:16.988Z,42.40
2022-08-27T17:38:45.569Z,43.06
2022-08-27T17:41:34.322Z,42.82
2022-08-27T17:44:10.403Z,43.33
2022-08-27T17:46:39.066Z,43.07
2022-08-27T17:49:06.949Z,43.37
2022-08-27T17:51:36.199Z,43.68
2022-08-27T17:54:06.216Z,44.79
2022-08-27T17:56:34.384Z,45.81
2022-08-27T17:59:02.321Z,46.54
2022-08-27T18:01:32.493Z,46.45
2022-08-27T18:04:00.582Z,47.02
2022-08-27T18:06:28.872Z,47.33
2022-08-27T18:08:57.136Z,47.84
2022-08-27T18:11:26.119Z,47.64
2022-08-27T18:14:01.538Z,47.37
2022-08-27T18:16:32.993Z,46.91
2022-08-27T18:19:06.963Z,47.51
2022-08-27T18:21:35.675Z,48.02
2022-08-27T18:24:04.123Z,48.89
2022-08-27T18:26:33.930Z,49.61
2022-08-27T18:29:02.123Z,49.90
2022-08-27T18:31:32.134Z,49.96
2022-08-27T18:34:00.775Z,50.20
2022-08-27T18:36:29.322Z,50.29
2022-08-27T18:39:00.077Z,51.16
2022-08-27T18:41:31.478Z,51.80
2022-08-27T18:44:00.122Z,52.17
2022-08-27T18:46:28.333Z,52.44
2022-08-27T18:48:56.318Z,52.87
2022-08-27T18:51:24.289Z,53.13
2022-08-27T18:53:52.478Z,51.91
2022-08-27T18:56:20.858Z,51.33
2022-08-27T18:58:49.014Z,51.75
2022-08-27T19:01:25.671Z,52.69
2022-08-27T19:03:57.096Z,53.51
2022-08-27T19:06:25.815Z,54.18
2022-08-27T19:08:53.816Z,54.66
2022-08-27T19:11:21.997Z,55.00
2022-08-27T19:13:51.007Z,55.19
2022-08-27T19:16:39.287Z,55.11
2022-08-27T19:19:07.639Z,55.52
2022-08-27T19:21:35.676Z,55.15
2022-08-27T19:24:04.519Z,54.95
2022-08-27T19:26:33.108Z,54.79
2022-08-27T19:29:01.248Z,54.89
2022-08-27T19:31:31.693Z,55.33
2022-08-27T19:34:00.573Z,55.28
2022-08-27T19:36:28.618Z,55.46
2022-08-27T19:38:56.835Z,55.54
2022-08-27T19:41:27.720Z,55.15
2022-08-27T19:43:56.165Z,55.41
2022-08-27T19:46:26.334Z,55.51
2022-08-27T19:48:55.740Z,55.88
2022-08-27T19:51:23.724Z,56.43
2022-08-27T19:53:51.739Z,56.71
2022-08-27T19:56:19.717Z,56.86
2022-08-27T19:58:47.785Z,56.28
2022-08-27T20:01:16.253Z,56.51
2022-08-27T20:03:44.539Z,56.36
2022-08-27T20:06:13.189Z,56.91
2022-08-27T20:08:41.102Z,57.33
2022-08-27T20:11:09.737Z,57.66
2022-08-27T20:13:37.998Z,58.20
2022-08-27T20:16:16.803Z,58.95
2022-08-27T20:18:46.474Z,59.39
2022-08-27T20:21:14.495Z,59.23
2022-08-27T20:23:42.397Z,59.29
2022-08-27T20:26:10.368Z,59.47
2022-08-27T20:28:40.285Z,59.43
2022-08-27T20:31:08.875Z,59.56
2022-08-27T20:33:37.034Z,59.19
2022-08-27T20:36:06.511Z,59.23
2022-08-27T20:38:35.064Z,59.30
2022-08-27T20:41:03.452Z,58.36
2022-08-27T20:43:31.591Z,59.01
2022-08-27T20:46:00.273Z,59.41
2022-08-27T20:48:28.595Z,59.82
2022-08-27T20:50:56.652Z,60.28
2022-08-27T20:53:24.959Z,60.67
2022-08-27T20:55:56.758Z,60.65
2022-08-27T20:58:44.011Z,60.92
2022-08-27T21:01:12.234Z,61.04
2022-08-27T21:03:40.534Z,60.51
2022-08-27T21:06:09.209Z,60.28
2022-08-27T21:08:39.664Z,60.53
2022-08-27T21:11:15.566Z,60.32
2022-08-27T21:13:55.603Z,60.94
2022-08-27T21:16:25.718Z,61.67
2022-08-27T21:18:54.125Z,61.34
2022-08-27T21:21:22.869Z,61.55
2022-08-27T21:23:50.945Z,61.64
2022-08-27T21:26:20.413Z,61.81
2022-08-27T21:28:48.494Z,62.00
2022-08-27T21:31:25.262Z,62.18
2022-08-27T21:33:53.509Z,62.25
2022-08-27T21:36:21.827Z,62.33
2022-08-27T21:38:50.433Z,62.28
2022-08-27T21:41:18.409Z,62.18
2022-08-27T21:43:46.416Z,62.22
2022-08-27T21:46:14.665Z,62.44
2022-08-27T21:48:42.625Z,62.88
2022-08-27T21:51:13.842Z,63.18
2022-08-27T21:53:43.159Z,63.31
2022-08-27T21:56:12.257Z,63.34
2022-08-27T21:58:40.830Z,63.65
2022-08-27T22:01:08.955Z,63.69
2022-08-27T22:03:37.048Z,63.72
2022-08-27T22:06:08.596Z,63.90
2022-08-27T22:08:36.459Z,63.93
2022-08-27T22:11:05.071Z,64.00
2022-08-27T22:13:33.669Z,64.05
2022-08-27T22:16:02.185Z,64.18
2022-08-27T22:18:30.541Z,64.80
2022-08-27T22:21:00.439Z,65.11
2022-08-27T22:23:28.543Z,65.26
2022-08-27T22:25:56.688Z,65.20
2022-08-27T22:28:24.603Z,65.17
2022-08-27T22:30:52.616Z,65.68
2022-08-27T22:33:20.859Z,65.64
2022-08-27T22:35:48.875Z,65.26
2022-08-27T22:38:16.817Z,65.31
2022-08-27T22:40:44.819Z,65.99
2022-08-27T22:43:14.595Z,66.22
2022-08-27T22:45:42.576Z,66.53
2022-08-27T22:48:10.982Z,66.52
2022-08-27T22:50:39.154Z,66.64
2022-08-27T22:53:07.456Z,66.86
2022-08-27T22:55:36.287Z,67.10
2022-08-27T22:58:04.510Z,67.37
2022-08-27T23:00:36.300Z,67.62
2022-08-27T23:03:07.624Z,68.08
2022-08-27T23:05:40.482Z,68.16
2022-08-27T23:08:12.247Z,67.96
2022-08-27T23:10:42.615Z,67.96
2022-08-27T23:13:12.318Z,67.90
2022-08-27T23:15:41.348Z,68.31
2022-08-27T23:18:09.469Z,68.64
2022-08-27T23:20:37.531Z,68.75
2022-08-27T23:23:08.147Z,68.79
2022-08-27T23:25:54.816Z,69.04
2022-08-27T23:28:23.651Z,69.34
2022-08-27T23:30:51.986Z,69.57
2022-08-27T23:33:20.503Z,69.65
2022-08-27T23:35:51.594Z,69.68
2022-08-27T23:38:21.431Z,69.90
2022-08-27T23:40:50.575Z,70.24
2022-08-27T23:43:19.713Z,70.61
2022-08-27T23:45:49.346Z,70.64
2022-08-27T23:48:17.254Z,70.56
2022-08-27T23:50:45.972Z,70.52
2022-08-27T23:53:14.843Z,70.57
2022-08-27T23:55:42.866Z,70.84
2022-08-27T23:58:12.273Z,71.08
